sensor_id;sensor_type;location;lat;lon;timestamp;temperature;humidity
25250;DHT22;13201;51.148;13.738;2022-07-24T00:02:00;17.60;99.90
25250;DHT22;13201;51.148;13.738;2022-07-24T00:04:25;17.50;99.90
25250;DHT22;13201;51.148;13.738;2022-07-24T00:06:51;17.40;99.90
25250;DHT22;13201;51.148;13.738;2022-07-24T00:09:16;17.20;99.90
25250;DHT22;13201;51.148;13.738;2022-07-24T00:11:42;17.20;99.90
25250;DHT22;13201;51.148;13.738;2022-07-24T00:14:08;17.00;99.90
25250;DHT22;13201;51.148;13.738;2022-07-24T00:16:33;17.00;99.90
25250;DHT22;13201;51.148;13.738;2022-07-24T00:18:59;16.90;99.90
25250;DHT22;13201;51.148;13.738;2022-07-24T00:21:24;16.90;99.90
25250;DHT22;13201;51.148;13.738;2022-07-24T00:23:50;16.90;99.90
25250;DHT22;13201;51.148;13.738;2022-07-24T00:26:15;17.00;99.90
25250;DHT22;13201;51.148;13.738;2022-07-24T00:28:41;16.90;99.90
25250;DHT22;13201;51.148;13.738;2022-07-24T00:31:06;17.00;99.90
25250;DHT22;13201;51.148;13.738;2022-07-24T00:33:32;17.00;99.90
25250;DHT22;13201;51.148;13.738;2022-07-24T00:35:57;17.10;99.90
25250;DHT22;13201;51.148;13.738;2022-07-24T00:38:23;17.00;99.90
25250;DHT22;13201;51.148;13.738;2022-07-24T00:40:49;16.90;99.90
25250;DHT22;13201;51.148;13.738;2022-07-24T00:43:14;16.70;99.90
25250;DHT22;13201;51.148;13.738;2022-07-24T00:45:41;16.60;99.90
25250;DHT22;13201;51.148;13.738;2022-07-24T00:48:07;16.80;99.90
25250;DHT22;13201;51.148;13.738;2022-07-24T00:50:32;16.70;99.90
25250;DHT22;13201;51.148;13.738;2022-07-24T00:52:58;16.70;99.90
25250;DHT22;13201;51.148;13.738;2022-07-24T00:55:24;16.50;99.90
25250;DHT22;13201;51.148;13.738;2022-07-24T00:57:50;16.40;99.90
25250;DHT22;13201;51.148;13.738;2022-07-24T01:00:16;16.50;99.90
25250;DHT22;13201;51.148;13.738;2022-07-24T01:02:42;16.50;99.90
25250;DHT22;13201;51.148;13.738;2022-07-24T01:05:09;16.50;99.90
25250;DHT22;13201;51.148;13.738;2022-07-24T01:32:32;15.10;99.90
25250;DHT22;13201;51.148;13.738;2022-07-24T01:34:58;14.80;99.90
25250;DHT22;13201;51.148;13.738;2022-07-24T01:37:24;14.70;99.90
25250;DHT22;13201;51.148;13.738;2022-07-24T01:39:49;14.80;99.90
25250;DHT22;13201;51.148;13.738;2022-07-24T01:42:15;15.00;99.90
25250;DHT22;13201;51.148;13.738;2022-07-24T01:44:41;15.00;99.90
25250;DHT22;13201;51.148;13.738;2022-07-24T01:47:06;15.10;99.90
25250;DHT22;13201;51.148;13.738;2022-07-24T01:49:32;15.00;99.90
25250;DHT22;13201;51.148;13.738;2022-07-24T01:51:58;15.10;99.90
25250;DHT22;13201;51.148;13.738;2022-07-24T01:54:23;15.10;99.90
25250;DHT22;13201;51.148;13.738;2022-07-24T01:56:49;15.20;99.90
25250;DHT22;13201;51.148;13.738;2022-07-24T01:59:14;15.10;99.90
25250;DHT22;13201;51.148;13.738;2022-07-24T02:01:40;15.00;99.90
25250;DHT22;13201;51.148;13.738;2022-07-24T02:04:06;15.30;99.90
25250;DHT22;13201;51.148;13.738;2022-07-24T02:06:31;15.40;99.90
25250;DHT22;13201;51.148;13.738;2022-07-24T02:08:57;15.40;99.90
25250;DHT22;13201;51.148;13.738;2022-07-24T02:11:23;15.40;99.90
25250;DHT22;13201;51.148;13.738;2022-07-24T02:13:48;15.50;99.90
25250;DHT22;13201;51.148;13.738;2022-07-24T02:16:14;15.50;99.90
25250;DHT22;13201;51.148;13.738;2022-07-24T02:18:40;15.20;99.90
25250;DHT22;13201;51.148;13.738;2022-07-24T02:21:05;15.10;99.90
25250;DHT22;13201;51.148;13.738;2022-07-24T02:23:31;15.10;99.90
25250;DHT22;13201;51.148;13.738;2022-07-24T02:25:57;15.10;99.90
25250;DHT22;13201;51.148;13.738;2022-07-24T02:28:22;15.00;99.90
25250;DHT22;13201;51.148;13.738;2022-07-24T02:30:48;15.10;99.90
25250;DHT22;13201;51.148;13.738;2022-07-24T02:33:14;15.10;99.90
25250;DHT22;13201;51.148;13.738;2022-07-24T02:35:40;15.20;99.90
25250;DHT22;13201;51.148;13.738;2022-07-24T02:38:05;15.10;99.90
25250;DHT22;13201;51.148;13.738;2022-07-24T02:40:31;15.00;99.90
25250;DHT22;13201;51.148;13.738;2022-07-24T02:42:57;15.00;99.90
25250;DHT22;13201;51.148;13.738;2022-07-24T02:45:23;15.00;99.90
25250;DHT22;13201;51.148;13.738;2022-07-24T02:47:52;15.10;99.90
25250;DHT22;13201;51.148;13.738;2022-07-24T02:50:19;15.00;99.90
25250;DHT22;13201;51.148;13.738;2022-07-24T02:52:45;15.00;99.90
25250;DHT22;13201;51.148;13.738;2022-07-24T02:55:11;14.90;99.90
25250;DHT22;13201;51.148;13.738;2022-07-24T02:57:37;14.80;99.90
25250;DHT22;13201;51.148;13.738;2022-07-24T03:00:08;14.90;99.90
25250;DHT22;13201;51.148;13.738;2022-07-24T03:02:34;14.80;99.90
25250;DHT22;13201;51.148;13.738;2022-07-24T03:05:01;14.80;99.90
25250;DHT22;13201;51.148;13.738;2022-07-24T03:07:27;14.80;99.90
25250;DHT22;13201;51.148;13.738;2022-07-24T03:09:53;14.90;99.90
25250;DHT22;13201;51.148;13.738;2022-07-24T03:12:19;14.90;99.90
25250;DHT22;13201;51.148;13.738;2022-07-24T03:14:44;14.80;99.90
25250;DHT22;13201;51.148;13.738;2022-07-24T03:17:10;14.80;99.90
25250;DHT22;13201;51.148;13.738;2022-07-24T03:19:36;14.60;99.90
25250;DHT22;13201;51.148;13.738;2022-07-24T03:22:01;14.50;99.90
25250;DHT22;13201;51.148;13.738;2022-07-24T03:24:27;14.40;99.90
25250;DHT22;13201;51.148;13.738;2022-07-24T03:26:53;14.60;99.90
25250;DHT22;13201;51.148;13.738;2022-07-24T03:29:19;14.50;99.90
25250;DHT22;13201;51.148;13.738;2022-07-24T03:31:45;14.40;99.90
25250;DHT22;13201;51.148;13.738;2022-07-24T03:34:10;14.30;99.90
25250;DHT22;13201;51.148;13.738;2022-07-24T03:36:36;14.30;99.90
25250;DHT22;13201;51.148;13.738;2022-07-24T03:39:03;14.40;99.90
25250;DHT22;13201;51.148;13.738;2022-07-24T03:41:28;14.30;99.90
25250;DHT22;13201;51.148;13.738;2022-07-24T03:43:54;14.40;99.90
25250;DHT22;13201;51.148;13.738;2022-07-24T03:46:20;14.60;99.90
25250;DHT22;13201;51.148;13.738;2022-07-24T03:48:45;14.60;99.90
25250;DHT22;13201;51.148;13.738;2022-07-24T03:51:11;14.60;99.90
25250;DHT22;13201;51.148;13.738;2022-07-24T03:53:36;14.60;99.90
25250;DHT22;13201;51.148;13.738;2022-07-24T03:56:07;14.60;99.90
25250;DHT22;13201;51.148;13.738;2022-07-24T03:58:33;14.60;99.90
25250;DHT22;13201;51.148;13.738;2022-07-24T04:00:58;14.60;99.90
25250;DHT22;13201;51.148;13.738;2022-07-24T04:03:24;14.60;99.90
25250;DHT22;13201;51.148;13.738;2022-07-24T04:05:50;14.60;99.90
25250;DHT22;13201;51.148;13.738;2022-07-24T04:08:15;14.70;99.90
25250;DHT22;13201;51.148;13.738;2022-07-24T04:10:41;14.70;99.90
25250;DHT22;13201;51.148;13.738;2022-07-24T04:13:07;14.70;99.90
25250;DHT22;13201;51.148;13.738;2022-07-24T04:15:32;14.80;99.90
25250;DHT22;13201;51.148;13.738;2022-07-24T04:17:58;14.80;99.90
25250;DHT22;13201;51.148;13.738;2022-07-24T04:20:24;14.80;99.90
25250;DHT22;13201;51.148;13.738;2022-07-24T04:22:49;14.90;99.90
25250;DHT22;13201;51.148;13.738;2022-07-24T04:25:15;15.00;99.90
25250;DHT22;13201;51.148;13.738;2022-07-24T04:27:41;15.00;99.90
25250;DHT22;13201;51.148;13.738;2022-07-24T04:30:07;15.00;99.90
25250;DHT22;13201;51.148;13.738;2022-07-24T04:32:32;15.00;99.90
25250;DHT22;13201;51.148;13.738;2022-07-24T04:34:58;15.10;99.90
25250;DHT22;13201;51.148;13.738;2022-07-24T04:37:23;15.10;99.90
25250;DHT22;13201;51.148;13.738;2022-07-24T04:39:49;15.20;99.90
25250;DHT22;13201;51.148;13.738;2022-07-24T04:42:15;15.30;99.90
25250;DHT22;13201;51.148;13.738;2022-07-24T04:44:41;15.40;99.90
25250;DHT22;13201;51.148;13.738;2022-07-24T04:47:06;15.50;99.90
25250;DHT22;13201;51.148;13.738;2022-07-24T04:49:32;15.50;99.90
25250;DHT22;13201;51.148;13.738;2022-07-24T04:51:57;15.60;99.90
25250;DHT22;13201;51.148;13.738;2022-07-24T04:54:23;15.60;99.90
25250;DHT22;13201;51.148;13.738;2022-07-24T04:56:49;15.70;99.90
25250;DHT22;13201;51.148;13.738;2022-07-24T04:59:14;15.80;99.90
25250;DHT22;13201;51.148;13.738;2022-07-24T05:01:40;15.80;99.90
25250;DHT22;13201;51.148;13.738;2022-07-24T05:04:06;16.00;99.90
25250;DHT22;13201;51.148;13.738;2022-07-24T05:06:31;16.00;99.90
25250;DHT22;13201;51.148;13.738;2022-07-24T05:08:57;16.10;99.90
25250;DHT22;13201;51.148;13.738;2022-07-24T05:11:22;16.30;99.90
25250;DHT22;13201;51.148;13.738;2022-07-24T05:13:48;16.40;99.90
25250;DHT22;13201;51.148;13.738;2022-07-24T05:16:14;16.50;99.90
25250;DHT22;13201;51.148;13.738;2022-07-24T05:18:40;16.70;99.90
25250;DHT22;13201;51.148;13.738;2022-07-24T05:21:05;16.80;99.90
25250;DHT22;13201;51.148;13.738;2022-07-24T05:23:31;16.90;99.90
25250;DHT22;13201;51.148;13.738;2022-07-24T05:25:57;17.10;99.90
25250;DHT22;13201;51.148;13.738;2022-07-24T05:28:22;17.30;99.90
25250;DHT22;13201;51.148;13.738;2022-07-24T05:30:48;17.50;99.90
25250;DHT22;13201;51.148;13.738;2022-07-24T05:33:13;17.60;99.90
25250;DHT22;13201;51.148;13.738;2022-07-24T05:35:39;17.80;99.90
25250;DHT22;13201;51.148;13.738;2022-07-24T05:38:05;18.00;99.90
25250;DHT22;13201;51.148;13.738;2022-07-24T05:40:30;18.00;99.90
25250;DHT22;13201;51.148;13.738;2022-07-24T05:42:56;18.10;99.90
25250;DHT22;13201;51.148;13.738;2022-07-24T05:45:22;18.30;99.90
25250;DHT22;13201;51.148;13.738;2022-07-24T05:47:47;18.30;99.90
25250;DHT22;13201;51.148;13.738;2022-07-24T05:50:13;18.40;99.90
25250;DHT22;13201;51.148;13.738;2022-07-24T05:52:40;18.50;99.90
25250;DHT22;13201;51.148;13.738;2022-07-24T05:55:07;18.70;99.90
25250;DHT22;13201;51.148;13.738;2022-07-24T05:57:33;18.70;99.90
25250;DHT22;13201;51.148;13.738;2022-07-24T05:59:59;18.90;99.90
25250;DHT22;13201;51.148;13.738;2022-07-24T06:02:25;19.10;99.90
25250;DHT22;13201;51.148;13.738;2022-07-24T06:04:50;19.20;99.90
25250;DHT22;13201;51.148;13.738;2022-07-24T06:07:16;19.20;99.90
25250;DHT22;13201;51.148;13.738;2022-07-24T06:09:42;19.30;99.90
25250;DHT22;13201;51.148;13.738;2022-07-24T06:12:08;19.40;99.90
25250;DHT22;13201;51.148;13.738;2022-07-24T06:14:34;19.50;99.90
25250;DHT22;13201;51.148;13.738;2022-07-24T06:17:00;19.60;99.90
25250;DHT22;13201;51.148;13.738;2022-07-24T06:19:26;19.70;99.90
25250;DHT22;13201;51.148;13.738;2022-07-24T06:21:52;19.70;99.90
25250;DHT22;13201;51.148;13.738;2022-07-24T06:24:18;19.90;99.90
25250;DHT22;13201;51.148;13.738;2022-07-24T06:26:44;19.80;99.90
25250;DHT22;13201;51.148;13.738;2022-07-24T06:29:10;20.00;99.90
25250;DHT22;13201;51.148;13.738;2022-07-24T06:31:35;20.10;99.90
25250;DHT22;13201;51.148;13.738;2022-07-24T06:34:01;20.00;99.90
25250;DHT22;13201;51.148;13.738;2022-07-24T06:36:26;20.00;99.90
25250;DHT22;13201;51.148;13.738;2022-07-24T06:38:53;20.10;99.90
25250;DHT22;13201;51.148;13.738;2022-07-24T06:41:19;20.30;99.90
25250;DHT22;13201;51.148;13.738;2022-07-24T06:43:44;20.40;99.90
25250;DHT22;13201;51.148;13.738;2022-07-24T06:46:10;20.40;99.90
25250;DHT22;13201;51.148;13.738;2022-07-24T06:48:36;20.50;99.90
25250;DHT22;13201;51.148;13.738;2022-07-24T06:51:04;20.70;99.90
25250;DHT22;13201;51.148;13.738;2022-07-24T06:53:29;20.70;99.90
25250;DHT22;13201;51.148;13.738;2022-07-24T06:55:55;20.70;99.90
25250;DHT22;13201;51.148;13.738;2022-07-24T06:58:21;20.60;99.90
25250;DHT22;13201;51.148;13.738;2022-07-24T07:00:47;20.80;99.90
25250;DHT22;13201;51.148;13.738;2022-07-24T07:03:14;20.90;99.90
25250;DHT22;13201;51.148;13.738;2022-07-24T07:05:40;20.70;99.90
25250;DHT22;13201;51.148;13.738;2022-07-24T07:08:06;20.70;99.90
25250;DHT22;13201;51.148;13.738;2022-07-24T07:10:31;20.90;99.90
25250;DHT22;13201;51.148;13.738;2022-07-24T07:12:57;21.10;99.90
25250;DHT22;13201;51.148;13.738;2022-07-24T07:15:23;21.20;99.90
25250;DHT22;13201;51.148;13.738;2022-07-24T07:17:49;21.00;99.90
25250;DHT22;13201;51.148;13.738;2022-07-24T07:20:15;21.00;99.90
25250;DHT22;13201;51.148;13.738;2022-07-24T07:22:41;21.20;99.90
25250;DHT22;13201;51.148;13.738;2022-07-24T07:25:08;21.30;99.90
25250;DHT22;13201;51.148;13.738;2022-07-24T07:27:34;21.30;99.90
25250;DHT22;13201;51.148;13.738;2022-07-24T07:30:02;21.30;99.90
25250;DHT22;13201;51.148;13.738;2022-07-24T07:32:27;21.30;99.90
25250;DHT22;13201;51.148;13.738;2022-07-24T07:34:53;21.50;99.90
25250;DHT22;13201;51.148;13.738;2022-07-24T07:37:18;21.60;99.90
25250;DHT22;13201;51.148;13.738;2022-07-24T07:39:44;21.70;99.90
25250;DHT22;13201;51.148;13.738;2022-07-24T07:42:10;21.70;99.90
25250;DHT22;13201;51.148;13.738;2022-07-24T07:44:35;21.70;99.90
25250;DHT22;13201;51.148;13.738;2022-07-24T07:47:01;21.60;99.90
25250;DHT22;13201;51.148;13.738;2022-07-24T07:49:26;21.80;99.90
25250;DHT22;13201;51.148;13.738;2022-07-24T07:51:53;21.80;99.90
25250;DHT22;13201;51.148;13.738;2022-07-24T07:54:19;21.90;99.90
25250;DHT22;13201;51.148;13.738;2022-07-24T07:56:45;21.80;99.60
25250;DHT22;13201;51.148;13.738;2022-07-24T07:59:10;21.60;99.70
25250;DHT22;13201;51.148;13.738;2022-07-24T08:01:36;21.80;99.90
25250;DHT22;13201;51.148;13.738;2022-07-24T08:04:02;21.90;99.90
25250;DHT22;13201;51.148;13.738;2022-07-24T08:06:28;22.00;99.90
25250;DHT22;13201;51.148;13.738;2022-07-24T08:08:54;22.20;99.90
25250;DHT22;13201;51.148;13.738;2022-07-24T08:11:20;22.20;99.80
25250;DHT22;13201;51.148;13.738;2022-07-24T08:13:45;22.30;99.90
25250;DHT22;13201;51.148;13.738;2022-07-24T08:16:11;22.50;99.90
25250;DHT22;13201;51.148;13.738;2022-07-24T08:18:37;22.60;99.90
25250;DHT22;13201;51.148;13.738;2022-07-24T08:21:03;22.90;99.90
25250;DHT22;13201;51.148;13.738;2022-07-24T08:23:29;23.10;99.90
25250;DHT22;13201;51.148;13.738;2022-07-24T08:25:54;23.10;99.60
25250;DHT22;13201;51.148;13.738;2022-07-24T08:28:20;23.10;99.90
25250;DHT22;13201;51.148;13.738;2022-07-24T08:30:51;23.40;99.50
25250;DHT22;13201;51.148;13.738;2022-07-24T08:33:17;23.40;99.10
25250;DHT22;13201;51.148;13.738;2022-07-24T08:35:43;23.50;98.70
25250;DHT22;13201;51.148;13.738;2022-07-24T08:38:08;23.80;98.90
25250;DHT22;13201;51.148;13.738;2022-07-24T08:40:37;23.80;98.70
25250;DHT22;13201;51.148;13.738;2022-07-24T08:43:05;23.90;98.40
25250;DHT22;13201;51.148;13.738;2022-07-24T08:45:35;23.90;98.20
25250;DHT22;13201;51.148;13.738;2022-07-24T08:48:03;23.80;98.10
25250;DHT22;13201;51.148;13.738;2022-07-24T08:50:30;23.70;97.80
25250;DHT22;13201;51.148;13.738;2022-07-24T08:52:57;24.10;97.90
25250;DHT22;13201;51.148;13.738;2022-07-24T08:55:23;23.90;96.80
25250;DHT22;13201;51.148;13.738;2022-07-24T08:57:49;23.80;96.80
25250;DHT22;13201;51.148;13.738;2022-07-24T09:00:15;23.80;97.50
25250;DHT22;13201;51.148;13.738;2022-07-24T09:02:40;24.00;97.30
25250;DHT22;13201;51.148;13.738;2022-07-24T09:05:07;24.10;96.70
25250;DHT22;13201;51.148;13.738;2022-07-24T09:07:32;24.20;96.60
25250;DHT22;13201;51.148;13.738;2022-07-24T09:10:13;24.50;97.40
25250;DHT22;13201;51.148;13.738;2022-07-24T09:12:42;24.70;97.10
25250;DHT22;13201;51.148;13.738;2022-07-24T09:15:21;24.80;96.20
25250;DHT22;13201;51.148;13.738;2022-07-24T09:17:54;24.80;97.00
25250;DHT22;13201;51.148;13.738;2022-07-24T09:20:21;24.90;95.90
25250;DHT22;13201;51.148;13.738;2022-07-24T09:22:47;25.10;96.30
25250;DHT22;13201;51.148;13.738;2022-07-24T09:25:21;25.20;96.40
25250;DHT22;13201;51.148;13.738;2022-07-24T09:27:51;25.30;95.90
25250;DHT22;13201;51.148;13.738;2022-07-24T09:32:59;25.40;95.40
25250;DHT22;13201;51.148;13.738;2022-07-24T09:37:57;25.30;95.50
25250;DHT22;13201;51.148;13.738;2022-07-24T09:40:32;25.50;95.40
25250;DHT22;13201;51.148;13.738;2022-07-24T09:43:20;25.70;95.10
25250;DHT22;13201;51.148;13.738;2022-07-24T09:45:58;25.70;95.50
25250;DHT22;13201;51.148;13.738;2022-07-24T09:48:38;25.60;95.60
25250;DHT22;13201;51.148;13.738;2022-07-24T09:51:05;25.70;95.20
25250;DHT22;13201;51.148;13.738;2022-07-24T09:53:35;26.00;95.80
25250;DHT22;13201;51.148;13.738;2022-07-24T09:56:10;25.60;94.60
25250;DHT22;13201;51.148;13.738;2022-07-24T09:58:57;25.90;94.80
25250;DHT22;13201;51.148;13.738;2022-07-24T10:01:26;26.20;94.90
25250;DHT22;13201;51.148;13.738;2022-07-24T10:03:52;26.30;94.40
25250;DHT22;13201;51.148;13.738;2022-07-24T10:06:19;26.60;94.20
25250;DHT22;13201;51.148;13.738;2022-07-24T10:08:47;26.20;93.90
25250;DHT22;13201;51.148;13.738;2022-07-24T10:11:13;26.60;94.30
25250;DHT22;13201;51.148;13.738;2022-07-24T10:13:39;26.60;94.00
25250;DHT22;13201;51.148;13.738;2022-07-24T10:26:15;26.70;92.90
25250;DHT22;13201;51.148;13.738;2022-07-24T10:28:43;27.10;94.20
25250;DHT22;13201;51.148;13.738;2022-07-24T10:31:10;27.50;93.10
25250;DHT22;13201;51.148;13.738;2022-07-24T10:33:36;27.40;92.80
25250;DHT22;13201;51.148;13.738;2022-07-24T10:36:03;27.30;92.90
25250;DHT22;13201;51.148;13.738;2022-07-24T10:38:35;27.20;92.70
25250;DHT22;13201;51.148;13.738;2022-07-24T10:41:08;27.60;92.60
25250;DHT22;13201;51.148;13.738;2022-07-24T10:43:35;27.50;92.50
25250;DHT22;13201;51.148;13.738;2022-07-24T10:48:29;27.60;92.80
25250;DHT22;13201;51.148;13.738;2022-07-24T10:51:01;28.00;92.40
25250;DHT22;13201;51.148;13.738;2022-07-24T11:03:53;28.20;91.20
25250;DHT22;13201;51.148;13.738;2022-07-24T11:06:19;28.50;91.30
25250;DHT22;13201;51.148;13.738;2022-07-24T11:09:02;28.70;90.80
25250;DHT22;13201;51.148;13.738;2022-07-24T11:11:28;28.90;91.40
25250;DHT22;13201;51.148;13.738;2022-07-24T11:13:57;28.70;90.90
25250;DHT22;13201;51.148;13.738;2022-07-24T11:16:26;28.80;90.80
25250;DHT22;13201;51.148;13.738;2022-07-24T11:29:21;29.20;90.20
25250;DHT22;13201;51.148;13.738;2022-07-24T11:31:59;29.10;88.40
25250;DHT22;13201;51.148;13.738;2022-07-24T11:34:27;29.10;89.90
25250;DHT22;13201;51.148;13.738;2022-07-24T11:36:55;29.10;89.90
25250;DHT22;13201;51.148;13.738;2022-07-24T11:39:31;29.30;89.90
25250;DHT22;13201;51.148;13.738;2022-07-24T11:41:59;29.70;88.70
25250;DHT22;13201;51.148;13.738;2022-07-24T11:47:04;30.00;87.60
25250;DHT22;13201;51.148;13.738;2022-07-24T11:49:35;29.70;84.80
25250;DHT22;13201;51.148;13.738;2022-07-24T11:52:03;29.40;87.50
25250;DHT22;13201;51.148;13.738;2022-07-24T11:54:29;29.70;85.20
25250;DHT22;13201;51.148;13.738;2022-07-24T11:56:56;30.00;85.20
25250;DHT22;13201;51.148;13.738;2022-07-24T11:59:26;30.20;85.30
25250;DHT22;13201;51.148;13.738;2022-07-24T12:02:10;29.40;82.20
25250;DHT22;13201;51.148;13.738;2022-07-24T12:04:39;30.00;82.40
25250;DHT22;13201;51.148;13.738;2022-07-24T12:07:09;30.00;82.50
25250;DHT22;13201;51.148;13.738;2022-07-24T12:15:10;30.70;83.50
25250;DHT22;13201;51.148;13.738;2022-07-24T12:20:28;31.30;82.10
25250;DHT22;13201;51.148;13.738;2022-07-24T12:22:54;30.80;80.60
25250;DHT22;13201;51.148;13.738;2022-07-24T12:25:20;31.10;80.00
25250;DHT22;13201;51.148;13.738;2022-07-24T12:27:47;30.80;79.90
25250;DHT22;13201;51.148;13.738;2022-07-24T12:30:30;30.90;78.60
25250;DHT22;13201;51.148;13.738;2022-07-24T12:33:03;30.80;79.10
25250;DHT22;13201;51.148;13.738;2022-07-24T12:35:31;31.10;79.20
25250;DHT22;13201;51.148;13.738;2022-07-24T12:37:58;31.50;78.00
25250;DHT22;13201;51.148;13.738;2022-07-24T12:40:35;31.60;78.10
25250;DHT22;13201;51.148;13.738;2022-07-24T12:43:10;31.30;76.20
25250;DHT22;13201;51.148;13.738;2022-07-24T12:45:38;31.00;74.10
25250;DHT22;13201;51.148;13.738;2022-07-24T12:48:17;31.30;74.80
25250;DHT22;13201;51.148;13.738;2022-07-24T12:53:29;31.00;74.50
25250;DHT22;13201;51.148;13.738;2022-07-24T12:56:22;31.20;74.30
25250;DHT22;13201;51.148;13.738;2022-07-24T12:58:57;31.50;75.30
25250;DHT22;13201;51.148;13.738;2022-07-24T13:01:26;31.90;76.40
25250;DHT22;13201;51.148;13.738;2022-07-24T13:03:58;31.90;74.50
25250;DHT22;13201;51.148;13.738;2022-07-24T13:06:39;31.80;73.40
25250;DHT22;13201;51.148;13.738;2022-07-24T13:09:07;31.90;74.10
25250;DHT22;13201;51.148;13.738;2022-07-24T13:11:34;32.00;74.20
25250;DHT22;13201;51.148;13.738;2022-07-24T13:14:00;32.10;72.70
25250;DHT22;13201;51.148;13.738;2022-07-24T13:16:28;32.10;71.30
25250;DHT22;13201;51.148;13.738;2022-07-24T13:18:54;32.30;72.20
25250;DHT22;13201;51.148;13.738;2022-07-24T13:21:20;32.30;72.20
25250;DHT22;13201;51.148;13.738;2022-07-24T13:23:45;31.70;71.30
25250;DHT22;13201;51.148;13.738;2022-07-24T13:26:11;32.50;72.60
25250;DHT22;13201;51.148;13.738;2022-07-24T13:28:37;33.00;72.30
25250;DHT22;13201;51.148;13.738;2022-07-24T13:31:02;32.70;71.80
25250;DHT22;13201;51.148;13.738;2022-07-24T13:33:30;32.40;71.00
25250;DHT22;13201;51.148;13.738;2022-07-24T13:35:56;32.70;71.30
25250;DHT22;13201;51.148;13.738;2022-07-24T13:38:21;33.40;70.80
25250;DHT22;13201;51.148;13.738;2022-07-24T13:40:47;33.30;70.50
25250;DHT22;13201;51.148;13.738;2022-07-24T13:43:12;33.50;70.00
25250;DHT22;13201;51.148;13.738;2022-07-24T13:45:38;33.70;69.00
25250;DHT22;13201;51.148;13.738;2022-07-24T13:48:04;34.10;70.20
25250;DHT22;13201;51.148;13.738;2022-07-24T13:50:30;34.00;68.30
25250;DHT22;13201;51.148;13.738;2022-07-24T13:52:55;34.50;68.50
25250;DHT22;13201;51.148;13.738;2022-07-24T13:55:21;34.30;67.40
25250;DHT22;13201;51.148;13.738;2022-07-24T13:57:46;34.30;67.70
25250;DHT22;13201;51.148;13.738;2022-07-24T14:00:13;34.80;67.40
25250;DHT22;13201;51.148;13.738;2022-07-24T14:02:39;33.90;67.20
25250;DHT22;13201;51.148;13.738;2022-07-24T14:05:04;34.00;68.30
25250;DHT22;13201;51.148;13.738;2022-07-24T14:07:30;33.40;67.30
25250;DHT22;13201;51.148;13.738;2022-07-24T14:09:56;34.20;67.30
25250;DHT22;13201;51.148;13.738;2022-07-24T14:12:22;34.90;68.10
25250;DHT22;13201;51.148;13.738;2022-07-24T14:14:47;34.70;65.90
25250;DHT22;13201;51.148;13.738;2022-07-24T14:17:13;34.90;65.40
25250;DHT22;13201;51.148;13.738;2022-07-24T14:19:39;34.10;64.60
25250;DHT22;13201;51.148;13.738;2022-07-24T14:22:04;34.00;65.80
25250;DHT22;13201;51.148;13.738;2022-07-24T14:24:30;35.00;65.60
25250;DHT22;13201;51.148;13.738;2022-07-24T14:26:56;35.90;64.20
25250;DHT22;13201;51.148;13.738;2022-07-24T14:29:23;35.90;64.30
25250;DHT22;13201;51.148;13.738;2022-07-24T14:31:49;34.80;62.30
25250;DHT22;13201;51.148;13.738;2022-07-24T14:34:15;34.70;63.30
25250;DHT22;13201;51.148;13.738;2022-07-24T14:36:41;34.20;62.60
25250;DHT22;13201;51.148;13.738;2022-07-24T14:39:07;32.90;61.70
25250;DHT22;13201;51.148;13.738;2022-07-24T14:41:33;33.20;62.30
25250;DHT22;13201;51.148;13.738;2022-07-24T14:43:58;33.90;63.30
25250;DHT22;13201;51.148;13.738;2022-07-24T14:46:24;34.10;62.80
25250;DHT22;13201;51.148;13.738;2022-07-24T14:48:50;34.50;62.20
25250;DHT22;13201;51.148;13.738;2022-07-24T14:51:15;35.00;62.50
25250;DHT22;13201;51.148;13.738;2022-07-24T14:53:41;35.30;61.60
25250;DHT22;13201;51.148;13.738;2022-07-24T14:56:06;35.50;61.30
25250;DHT22;13201;51.148;13.738;2022-07-24T14:58:32;35.30;62.00
25250;DHT22;13201;51.148;13.738;2022-07-24T15:00:58;35.50;62.50
25250;DHT22;13201;51.148;13.738;2022-07-24T15:03:23;35.30;60.70
25250;DHT22;13201;51.148;13.738;2022-07-24T15:05:49;36.00;61.40
25250;DHT22;13201;51.148;13.738;2022-07-24T15:08:14;36.10;60.90
25250;DHT22;13201;51.148;13.738;2022-07-24T15:10:40;36.70;60.00
25250;DHT22;13201;51.148;13.738;2022-07-24T15:13:06;36.50;59.50
25250;DHT22;13201;51.148;13.738;2022-07-24T15:15:32;35.90;59.20
25250;DHT22;13201;51.148;13.738;2022-07-24T15:17:57;36.30;60.20
25250;DHT22;13201;51.148;13.738;2022-07-24T15:20:23;36.80;60.00
25250;DHT22;13201;51.148;13.738;2022-07-24T15:22:49;36.50;59.50
25250;DHT22;13201;51.148;13.738;2022-07-24T15:25:14;36.50;59.00
25250;DHT22;13201;51.148;13.738;2022-07-24T15:27:40;36.60;58.80
25250;DHT22;13201;51.148;13.738;2022-07-24T15:30:06;36.60;58.50
25250;DHT22;13201;51.148;13.738;2022-07-24T15:32:32;36.20;58.80
25250;DHT22;13201;51.148;13.738;2022-07-24T15:34:57;35.60;58.10
25250;DHT22;13201;51.148;13.738;2022-07-24T15:37:25;35.00;57.60
25250;DHT22;13201;51.148;13.738;2022-07-24T15:39:50;35.60;57.90
25250;DHT22;13201;51.148;13.738;2022-07-24T15:42:16;36.10;57.70
25250;DHT22;13201;51.148;13.738;2022-07-24T15:44:41;36.30;58.30
25250;DHT22;13201;51.148;13.738;2022-07-24T15:47:07;36.70;57.70
25250;DHT22;13201;51.148;13.738;2022-07-24T15:49:33;36.40;57.30
25250;DHT22;13201;51.148;13.738;2022-07-24T15:51:58;36.60;56.50
25250;DHT22;13201;51.148;13.738;2022-07-24T15:54:24;36.80;56.50
25250;DHT22;13201;51.148;13.738;2022-07-24T15:56:50;36.40;56.30
25250;DHT22;13201;51.148;13.738;2022-07-24T15:59:16;36.20;56.50
25250;DHT22;13201;51.148;13.738;2022-07-24T16:01:42;35.90;56.60
25250;DHT22;13201;51.148;13.738;2022-07-24T16:04:07;36.20;56.50
25250;DHT22;13201;51.148;13.738;2022-07-24T16:06:33;36.40;56.50
25250;DHT22;13201;51.148;13.738;2022-07-24T16:08:59;36.60;56.60
25250;DHT22;13201;51.148;13.738;2022-07-24T16:11:24;36.10;56.00
25250;DHT22;13201;51.148;13.738;2022-07-24T16:13:50;36.60;56.50
25250;DHT22;13201;51.148;13.738;2022-07-24T16:16:16;36.60;56.10
25250;DHT22;13201;51.148;13.738;2022-07-24T16:18:41;36.40;55.70
25250;DHT22;13201;51.148;13.738;2022-07-24T16:21:07;36.90;56.50
25250;DHT22;13201;51.148;13.738;2022-07-24T16:23:33;37.00;56.20
25250;DHT22;13201;51.148;13.738;2022-07-24T16:26:00;37.20;55.20
25250;DHT22;13201;51.148;13.738;2022-07-24T16:28:26;37.40;55.00
25250;DHT22;13201;51.148;13.738;2022-07-24T16:30:52;37.70;55.00